createdAt,value
2023-01-09T00:01:44.827Z,66.43
2023-01-09T00:04:13.387Z,66.76
2023-01-09T00:06:46.500Z,66.69
2023-01-09T00:09:14.106Z,67.20
2023-01-09T00:11:41.013Z,67.01
2023-01-09T00:16:55.896Z,67.19
2023-01-09T00:19:23.610Z,67.28
2023-01-09T00:21:50.758Z,66.67
2023-01-09T00:24:17.768Z,66.63
2023-01-09T00:26:44.688Z,66.51
2023-01-09T00:29:16.314Z,66.69
2023-01-09T00:31:44.468Z,66.93
2023-01-09T00:34:12.261Z,67.35
2023-01-09T00:36:57.988Z,66.97
2023-01-09T00:39:36.795Z,66.85
2023-01-09T00:42:11.776Z,67.18
2023-01-09T00:44:49.459Z,66.82
2023-01-09T00:47:31.395Z,67.25
2023-01-09T00:50:05.384Z,67.37
2023-01-09T00:52:36.090Z,66.88
2023-01-09T00:55:04.261Z,67.04
2023-01-09T00:57:34.099Z,66.76
2023-01-09T01:00:02.346Z,67.06
2023-01-09T01:02:29.360Z,66.87
2023-01-09T01:05:24.255Z,66.91
2023-01-09T01:08:05.529Z,66.78
2023-01-09T01:10:36.173Z,66.75
2023-01-09T01:13:03.712Z,66.80
2023-01-09T01:15:32.070Z,66.85
2023-01-09T01:18:03.345Z,66.08
2023-01-09T01:20:30.482Z,66.53
2023-01-09T01:24:16.940Z,66.62
2023-01-09T01:26:14.415Z,66.78
2023-01-09T01:28:43.359Z,66.52
2023-01-09T01:31:20.618Z,66.58
2023-01-09T01:33:47.748Z,66.45
2023-01-09T01:38:59.990Z,66.21
2023-01-09T01:41:47.315Z,65.91
2023-01-09T01:44:52.308Z,65.35
2023-01-09T01:48:00.647Z,65.23
2023-01-09T01:50:35.585Z,64.99
2023-01-09T01:53:17.235Z,64.68
2023-01-09T01:56:15.085Z,64.40
2023-01-09T01:58:56.624Z,64.20
2023-01-09T02:01:25.932Z,63.60
2023-01-09T02:03:55.679Z,63.48
2023-01-09T02:06:39.904Z,63.64
2023-01-09T02:09:07.711Z,63.94
2023-01-09T02:11:34.651Z,64.09
2023-01-09T02:14:05.711Z,64.02
2023-01-09T02:17:12.531Z,64.38
2023-01-09T02:19:40.037Z,64.59
2023-01-09T02:22:37.891Z,64.86
2023-01-09T02:25:29.100Z,65.12
2023-01-09T02:28:20.673Z,64.92
2023-01-09T02:31:02.030Z,65.42
2023-01-09T02:33:57.366Z,65.35
2023-01-09T02:36:51.857Z,65.50
2023-01-09T02:39:34.813Z,65.49
2023-01-09T02:42:14.359Z,65.24
2023-01-09T02:44:43.328Z,65.94
2023-01-09T02:47:29.698Z,65.45
2023-01-09T02:50:10.476Z,65.91
2023-01-09T02:53:09.089Z,65.78
2023-01-09T02:56:14.153Z,65.43
2023-01-09T02:59:34.113Z,64.73
2023-01-09T03:02:10.046Z,63.49
2023-01-09T03:04:51.416Z,61.94
2023-01-09T03:07:34.872Z,60.77
2023-01-09T03:10:19.490Z,60.94
2023-01-09T03:12:52.013Z,61.30
2023-01-09T03:15:24.237Z,61.62
2023-01-09T03:17:52.670Z,61.63
2023-01-09T03:20:24.567Z,61.24
2023-01-09T03:23:06.648Z,61.39
2023-01-09T03:25:34.706Z,61.53
2023-01-09T03:28:51.541Z,61.59
2023-01-09T03:31:19.303Z,61.35
2023-01-09T03:33:46.321Z,61.74
2023-01-09T03:36:33.299Z,61.64
2023-01-09T03:39:00.417Z,61.75
2023-01-09T03:41:31.329Z,61.59
2023-01-09T03:43:59.254Z,61.72
2023-01-09T03:46:26.170Z,61.52
2023-01-09T03:48:53.074Z,61.34
2023-01-09T03:51:23.060Z,61.41
2023-01-09T03:53:52.964Z,61.79
2023-01-09T03:56:19.883Z,61.88
2023-01-09T03:58:50.217Z,61.61
2023-01-09T04:01:21.321Z,61.06
2023-01-09T04:03:48.459Z,61.18
2023-01-09T04:06:15.405Z,61.43
2023-01-09T04:08:42.397Z,61.15
2023-01-09T04:11:09.898Z,61.39
2023-01-09T04:13:36.782Z,60.83
2023-01-09T04:16:04.216Z,60.48
2023-01-09T04:18:31.333Z,59.40
2023-01-09T04:20:58.247Z,57.97
2023-01-09T04:23:25.155Z,57.56
2023-01-09T04:25:53.533Z,57.40
2023-01-09T04:28:23.457Z,57.25
2023-01-09T04:31:15.397Z,56.36
2023-01-09T04:33:42.284Z,56.76
2023-01-09T04:36:15.702Z,56.48
2023-01-09T04:38:46.320Z,56.72
2023-01-09T04:47:54.679Z,57.35
2023-01-09T04:50:21.779Z,57.20
2023-01-09T04:52:48.680Z,57.49
2023-01-09T04:55:15.783Z,57.13
2023-01-09T04:57:53.998Z,57.43
2023-01-09T05:00:24.459Z,57.39
2023-01-09T05:02:51.548Z,57.64
2023-01-09T05:05:22.127Z,57.54
2023-01-09T05:07:52.988Z,57.26
2023-01-09T05:10:19.959Z,56.99
2023-01-09T05:12:46.865Z,57.25
2023-01-09T05:15:14.838Z,56.80
2023-01-09T05:18:00.337Z,56.21
2023-01-09T05:20:27.744Z,55.83
2023-01-09T05:22:54.729Z,56.04
2023-01-09T05:25:22.883Z,56.21
2023-01-09T05:27:49.764Z,56.33
2023-01-09T05:30:18.385Z,56.31
2023-01-09T05:32:45.755Z,56.44
2023-01-09T05:35:12.691Z,55.94
2023-01-09T05:37:40.108Z,56.16
2023-01-09T05:40:07.620Z,56.36
2023-01-09T05:42:34.503Z,56.31
2023-01-09T05:45:01.449Z,56.69
2023-01-09T05:47:28.579Z,56.43
2023-01-09T05:50:15.216Z,56.67
2023-01-09T05:52:42.106Z,57.21
2023-01-09T05:55:15.118Z,57.08
2023-01-09T05:57:42.148Z,56.62
2023-01-09T06:00:10.813Z,57.26
2023-01-09T06:02:37.962Z,57.48
2023-01-09T06:05:05.508Z,57.58
2023-01-09T06:07:35.059Z,57.79
2023-01-09T06:10:03.838Z,57.54
2023-01-09T06:12:34.788Z,57.19
2023-01-09T06:15:54.110Z,57.35
2023-01-09T06:18:21.121Z,57.65
2023-01-09T06:20:48.257Z,57.40
2023-01-09T06:23:15.289Z,57.38
2023-01-09T06:25:45.653Z,57.51
2023-01-09T06:28:12.856Z,57.54
2023-01-09T06:30:39.975Z,57.96
2023-01-09T06:35:57.696Z,58.50
2023-01-09T06:38:24.685Z,58.64
2023-01-09T06:40:51.855Z,59.10
2023-01-09T06:43:19.556Z,59.27
2023-01-09T06:45:46.536Z,59.65
2023-01-09T06:48:19.791Z,59.46
2023-01-09T06:50:48.477Z,59.64
2023-01-09T06:53:15.458Z,59.80
2023-01-09T06:55:42.689Z,59.64
2023-01-09T06:58:09.799Z,59.83
2023-01-09T07:00:39.960Z,60.05
2023-01-09T07:03:06.974Z,60.27
2023-01-09T07:05:43.855Z,60.43
2023-01-09T07:08:15.110Z,60.69
2023-01-09T07:10:43.067Z,60.33
2023-01-09T07:13:12.609Z,60.58
2023-01-09T07:15:39.817Z,60.69
2023-01-09T07:18:06.816Z,60.75
2023-01-09T07:20:33.826Z,60.85
2023-01-09T07:23:00.766Z,60.39
2023-01-09T07:25:31.501Z,60.84
2023-01-09T07:27:58.429Z,60.40
2023-01-09T07:30:25.344Z,60.39
2023-01-09T07:32:53.835Z,60.33
2023-01-09T07:35:20.721Z,60.01
2023-01-09T07:37:47.666Z,59.37
2023-01-09T07:40:14.809Z,58.21
2023-01-09T07:42:41.773Z,57.24
2023-01-09T07:45:09.378Z,56.04
2023-01-09T07:47:36.299Z,54.51
2023-01-09T07:52:48.549Z,52.42
2023-01-09T07:55:17.446Z,51.89
2023-01-09T07:57:49.943Z,50.23
2023-01-09T08:00:17.897Z,49.47
2023-01-09T08:02:44.962Z,47.40
2023-01-09T08:05:15.080Z,46.96
2023-01-09T08:07:42.197Z,44.66
2023-01-09T08:10:10.672Z,43.25
2023-01-09T08:12:37.768Z,42.65
2023-01-09T08:15:05.538Z,40.99
2023-01-09T08:17:32.604Z,39.58
2023-01-09T08:19:59.515Z,38.69
2023-01-09T08:22:26.514Z,37.34
2023-01-09T08:24:53.455Z,36.59
2023-01-09T08:27:20.439Z,34.41
2023-01-09T08:29:47.331Z,34.69
2023-01-09T08:32:14.374Z,33.64
2023-01-09T08:34:41.442Z,31.74
2023-01-09T08:37:08.431Z,32.02
2023-01-09T08:39:36.405Z,32.08
2023-01-09T08:42:22.292Z,30.99
2023-01-09T08:45:08.032Z,29.62
2023-01-09T08:47:35.297Z,29.69
2023-01-09T08:50:02.429Z,28.88
2023-01-09T08:52:31.016Z,28.23
2023-01-09T08:54:58.008Z,28.08
2023-01-09T08:57:25.360Z,27.63
2023-01-09T08:59:52.659Z,26.76
2023-01-09T09:02:19.618Z,25.91
2023-01-09T09:04:48.312Z,25.82
2023-01-09T09:07:15.713Z,24.55
2023-01-09T09:09:42.721Z,23.74
2023-01-09T09:12:09.659Z,23.70
2023-01-09T09:14:55.109Z,23.90
2023-01-09T09:17:40.674Z,22.08
2023-01-09T09:22:54.906Z,22.15
2023-01-09T09:25:22.266Z,21.43
2023-01-09T09:27:49.576Z,22.04
2023-01-09T09:30:18.762Z,21.51
2023-01-09T09:32:46.539Z,21.66
2023-01-09T09:35:14.108Z,20.54
2023-01-09T09:37:42.636Z,20.16
2023-01-09T09:40:25.105Z,19.00
2023-01-09T09:43:31.954Z,19.70
2023-01-09T09:46:09.850Z,19.67
2023-01-09T09:48:41.344Z,19.53
2023-01-09T09:51:17.258Z,18.41
2023-01-09T09:54:13.903Z,17.63
2023-01-09T09:56:50.582Z,17.35
2023-01-09T09:59:26.827Z,18.07
2023-01-09T10:02:26.076Z,16.31
2023-01-09T10:07:51.158Z,16.35
2023-01-09T10:10:40.806Z,16.29
2023-01-09T10:13:28.408Z,16.29
2023-01-09T10:16:26.829Z,15.25
2023-01-09T10:19:19.557Z,15.30
2023-01-09T10:22:25.172Z,14.36
2023-01-09T10:24:52.101Z,15.10
2023-01-09T10:27:39.949Z,13.48
2023-01-09T10:30:20.536Z,13.61
2023-01-09T10:33:03.349Z,13.19
2023-01-09T10:35:48.577Z,13.12
2023-01-09T10:38:24.247Z,12.71
2023-01-09T10:41:04.900Z,13.62
2023-01-09T10:43:39.681Z,13.40
2023-01-09T10:46:39.789Z,12.56
2023-01-09T10:49:19.072Z,12.51
2023-01-09T10:51:53.166Z,12.99
2023-01-09T10:54:23.709Z,12.62
2023-01-09T10:57:16.299Z,12.09
2023-01-09T10:59:43.401Z,11.99
2023-01-09T11:02:39.509Z,10.71
2023-01-09T11:05:06.901Z,11.81
2023-01-09T11:07:38.072Z,11.40
2023-01-09T11:10:08.272Z,10.92
2023-01-09T11:12:36.313Z,11.07
2023-01-09T11:15:20.982Z,10.72
2023-01-09T11:17:49.058Z,10.52
2023-01-09T11:20:21.970Z,10.54
2023-01-09T11:22:52.234Z,10.22
2023-01-09T11:25:21.201Z,9.11
2023-01-09T11:28:03.282Z,9.21
2023-01-09T11:30:31.724Z,9.31
2023-01-09T11:32:59.386Z,10.25
2023-01-09T11:35:34.095Z,8.96
2023-01-09T11:38:16.796Z,8.57
2023-01-09T11:40:51.156Z,9.07
2023-01-09T11:43:33.332Z,8.44
2023-01-09T11:46:20.315Z,8.32
2023-01-09T11:48:58.095Z,8.31
2023-01-09T11:51:33.356Z,9.68
2023-01-09T11:54:26.185Z,9.88
2023-01-09T11:56:53.760Z,11.23
2023-01-09T11:59:26.645Z,10.51
2023-01-09T12:02:08.387Z,10.37
2023-01-09T12:05:18.842Z,10.75
2023-01-09T12:08:08.533Z,9.90
2023-01-09T12:10:56.679Z,13.76
2023-01-09T12:13:42.814Z,15.99
2023-01-09T12:16:28.597Z,18.47
2023-01-09T12:19:29.571Z,19.97
2023-01-09T12:22:33.410Z,22.30
2023-01-09T12:25:18.555Z,23.03
2023-01-09T12:28:06.703Z,23.11
2023-01-09T12:30:59.132Z,24.11
2023-01-09T12:33:56.874Z,24.61
2023-01-09T12:36:43.777Z,25.30
2023-01-09T12:39:32.325Z,25.42
2023-01-09T12:42:36.343Z,26.81
2023-01-09T12:45:29.101Z,26.03
2023-01-09T12:52:37.113Z,25.92
2023-01-09T12:55:19.568Z,26.49
2023-01-09T12:58:24.055Z,26.56
2023-01-09T13:00:55.750Z,26.77
2023-01-09T13:04:35.589Z,26.82
2023-01-09T13:07:09.518Z,26.92
2023-01-09T13:13:56.015Z,27.62
2023-01-09T13:16:29.607Z,27.00
2023-01-09T13:19:07.994Z,27.37
2023-01-09T13:25:57.863Z,27.25
2023-01-09T13:28:47.180Z,27.59
2023-01-09T13:31:51.487Z,27.57
2023-01-09T13:34:42.111Z,28.08
2023-01-09T13:37:25.210Z,28.07
2023-01-09T13:40:02.305Z,28.49
2023-01-09T13:42:51.316Z,28.37
2023-01-09T13:45:25.837Z,28.51
2023-01-09T13:48:14.922Z,29.13
2023-01-09T13:50:51.348Z,28.94
2023-01-09T13:53:18.468Z,28.97
2023-01-09T13:55:58.359Z,29.05
2023-01-09T13:58:25.901Z,29.08
2023-01-09T14:00:55.898Z,29.43
2023-01-09T14:03:40.368Z,29.59
2023-01-09T14:06:13.283Z,30.38
2023-01-09T14:08:42.184Z,30.46
2023-01-09T14:11:10.210Z,30.63
2023-01-09T14:13:44.440Z,30.85
2023-01-09T14:16:17.108Z,30.98
2023-01-09T14:18:52.461Z,31.62
2023-01-09T14:21:20.235Z,31.85
2023-01-09T14:24:05.262Z,31.77
2023-01-09T14:26:48.341Z,32.01
2023-01-09T14:29:44.459Z,32.42
2023-01-09T14:32:33.983Z,32.45
2023-01-09T14:35:17.887Z,32.64
2023-01-09T14:38:01.331Z,32.70
2023-01-09T14:40:34.554Z,32.74
2023-01-09T14:43:12.409Z,32.93
2023-01-09T14:45:44.960Z,32.96
2023-01-09T14:48:12.950Z,33.06
2023-01-09T14:50:59.998Z,33.15
2023-01-09T14:53:32.124Z,33.50
2023-01-09T14:56:06.896Z,33.78
2023-01-09T14:59:03.389Z,34.02
2023-01-09T15:01:32.725Z,33.85
2023-01-09T15:04:08.791Z,34.02
2023-01-09T15:10:37.480Z,34.18
2023-01-09T15:13:08.159Z,34.33
2023-01-09T15:15:35.895Z,34.23
2023-01-09T15:21:50.552Z,34.59
2023-01-09T15:24:43.495Z,35.12
2023-01-09T15:27:15.352Z,34.75
2023-01-09T15:29:42.660Z,34.85
2023-01-09T15:32:33.217Z,35.27
2023-01-09T15:35:01.072Z,34.89
2023-01-09T15:37:38.595Z,35.22
2023-01-09T15:43:15.268Z,35.50
2023-01-09T15:45:46.475Z,35.67
2023-01-09T15:48:35.551Z,35.99
2023-01-09T15:51:19.787Z,36.09
2023-01-09T15:53:52.279Z,36.46
2023-01-09T15:56:25.197Z,36.63
2023-01-09T15:58:59.669Z,36.64
2023-01-09T16:01:41.553Z,36.75
2023-01-09T16:04:20.588Z,36.71
2023-01-09T16:06:50.673Z,36.86
2023-01-09T16:09:47.786Z,36.82
2023-01-09T16:12:20.773Z,36.75
2023-01-09T16:15:00.210Z,36.96
2023-01-09T16:17:31.304Z,36.87
2023-01-09T16:20:25.815Z,37.23
2023-01-09T16:22:55.155Z,37.49
2023-01-09T16:25:42.633Z,37.24
2023-01-09T16:28:15.914Z,37.59
2023-01-09T16:31:07.471Z,37.83
2023-01-09T16:33:35.402Z,37.92
2023-01-09T16:36:10.273Z,37.48
2023-01-09T16:38:55.743Z,38.10
2023-01-09T16:41:41.652Z,37.58
2023-01-09T16:44:12.133Z,37.90
2023-01-09T16:46:59.380Z,38.23
2023-01-09T16:52:33.915Z,38.44
2023-01-09T16:55:01.001Z,38.47
2023-01-09T16:57:27.923Z,38.48
2023-01-09T17:00:01.870Z,38.46
2023-01-09T17:02:29.753Z,38.67
2023-01-09T17:04:56.819Z,38.67
2023-01-09T17:07:25.706Z,38.80
2023-01-09T17:09:53.434Z,38.83
2023-01-09T17:12:54.245Z,38.99
2023-01-09T17:18:25.669Z,39.12
2023-01-09T17:20:55.544Z,39.31
2023-01-09T17:23:26.237Z,39.07
2023-01-09T17:26:37.360Z,39.42
2023-01-09T17:29:07.040Z,39.46
2023-01-09T17:31:34.105Z,39.72
2023-01-09T17:34:01.661Z,39.79
2023-01-09T17:36:34.824Z,39.88
2023-01-09T17:39:02.294Z,39.58
2023-01-09T17:41:32.782Z,39.66
2023-01-09T17:44:03.052Z,40.09
2023-01-09T17:46:35.234Z,40.10
2023-01-09T17:49:03.632Z,39.83
2023-01-09T17:51:30.857Z,40.12
2023-01-09T17:54:23.581Z,40.51
2023-01-09T17:56:51.816Z,39.96
2023-01-09T17:59:18.978Z,40.32
2023-01-09T18:01:47.443Z,40.54
2023-01-09T18:04:14.342Z,40.29
2023-01-09T18:06:59.769Z,40.46
2023-01-09T18:09:26.701Z,40.76
2023-01-09T18:11:53.601Z,40.64
2023-01-09T18:14:20.741Z,40.55
2023-01-09T18:16:47.839Z,40.65
2023-01-09T18:19:14.841Z,40.82
2023-01-09T18:21:41.773Z,40.97
2023-01-09T18:24:11.710Z,40.92
2023-01-09T18:26:39.017Z,41.16
2023-01-09T18:29:05.948Z,41.20
2023-01-09T18:31:33.516Z,40.99
2023-01-09T18:34:05.240Z,41.19
2023-01-09T18:36:32.226Z,41.37
2023-01-09T18:39:02.582Z,41.38
2023-01-09T18:41:38.803Z,41.24
2023-01-09T18:44:05.925Z,41.38
2023-01-09T18:46:44.557Z,41.75
2023-01-09T18:49:11.851Z,41.92
2023-01-09T18:51:41.014Z,41.61
2023-01-09T18:54:08.493Z,41.75
2023-01-09T18:56:36.210Z,41.85
2023-01-09T18:59:03.326Z,42.08
2023-01-09T19:01:36.665Z,41.88
2023-01-09T19:04:04.916Z,41.94
2023-01-09T19:06:31.921Z,42.10
2023-01-09T19:08:59.514Z,41.94
2023-01-09T19:11:26.660Z,42.17
2023-01-09T19:13:53.754Z,42.32
2023-01-09T19:16:23.993Z,42.24
2023-01-09T19:18:50.907Z,42.42
2023-01-09T19:21:23.834Z,42.59
2023-01-09T19:23:58.995Z,42.63
2023-01-09T19:26:31.392Z,45.06
2023-01-09T19:29:17.588Z,42.82
2023-01-09T19:31:46.953Z,42.73
2023-01-09T19:34:15.317Z,42.47
2023-01-09T19:37:01.730Z,42.78
2023-01-09T19:39:28.737Z,42.67
2023-01-09T19:41:56.250Z,43.13
2023-01-09T19:44:23.302Z,43.35
2023-01-09T19:46:50.593Z,43.25
2023-01-09T19:49:36.209Z,43.46
2023-01-09T19:52:03.335Z,43.73
2023-01-09T19:57:14.912Z,43.70
2023-01-09T19:59:43.772Z,43.44
2023-01-09T20:02:14.889Z,43.87
2023-01-09T20:04:41.773Z,43.70
2023-01-09T20:07:08.981Z,43.83
2023-01-09T20:09:36.082Z,44.32
2023-01-09T20:12:05.550Z,43.92
2023-01-09T20:14:37.981Z,44.47
2023-01-09T20:17:05.292Z,44.24
2023-01-09T20:19:35.708Z,44.14
2023-01-09T20:22:03.498Z,44.43
2023-01-09T20:24:30.428Z,44.17
2023-01-09T20:26:57.485Z,44.39
2023-01-09T20:29:42.967Z,44.29
2023-01-09T20:32:13.040Z,44.42
2023-01-09T20:34:48.286Z,44.63
2023-01-09T20:37:15.553Z,44.40
2023-01-09T20:39:42.511Z,44.49
2023-01-09T20:42:21.708Z,44.66
2023-01-09T20:44:51.579Z,44.56
2023-01-09T20:47:18.571Z,44.59
2023-01-09T20:49:45.527Z,44.53
2023-01-09T20:52:12.410Z,44.63
2023-01-09T20:54:41.840Z,44.79
2023-01-09T20:57:10.943Z,44.80
2023-01-09T20:59:37.985Z,44.73
2023-01-09T21:02:23.885Z,45.12
2023-01-09T21:04:50.844Z,44.75
2023-01-09T21:07:17.877Z,44.86
2023-01-09T21:09:45.710Z,45.02
2023-01-09T21:12:28.685Z,45.21
2023-01-09T21:14:55.808Z,45.18
2023-01-09T21:17:23.441Z,45.16
2023-01-09T21:19:50.948Z,45.29
2023-01-09T21:22:17.843Z,45.37
2023-01-09T21:24:44.843Z,45.34
2023-01-09T21:27:11.824Z,45.49
2023-01-09T21:29:46.327Z,45.68
2023-01-09T21:32:13.657Z,45.86
2023-01-09T21:34:41.122Z,45.80
2023-01-09T21:37:08.868Z,46.00
2023-01-09T21:39:36.397Z,46.01
2023-01-09T21:42:22.157Z,45.90
2023-01-09T21:45:11.255Z,45.68
2023-01-09T21:47:38.804Z,45.82
2023-01-09T21:50:06.490Z,46.59
2023-01-09T21:52:37.037Z,46.10
2023-01-09T21:55:04.654Z,45.83
2023-01-09T21:57:31.565Z,46.31
2023-01-09T22:00:01.694Z,45.83
2023-01-09T22:02:40.210Z,45.67
2023-01-09T22:05:09.983Z,46.05
2023-01-09T22:07:39.432Z,46.10
2023-01-09T22:10:07.132Z,45.60
2023-01-09T22:12:34.122Z,46.00
2023-01-09T22:15:01.342Z,46.19
2023-01-09T22:17:29.964Z,45.80
2023-01-09T22:19:57.340Z,46.12
2023-01-09T22:22:24.990Z,46.18
2023-01-09T22:24:53.804Z,46.06
2023-01-09T22:27:21.269Z,46.13
2023-01-09T22:29:54.907Z,46.13
2023-01-09T22:32:22.690Z,46.30
2023-01-09T22:34:53.021Z,45.95
2023-01-09T22:37:23.064Z,46.06
2023-01-09T22:39:53.346Z,46.46
2023-01-09T22:42:22.728Z,46.58
2023-01-09T22:44:49.565Z,46.68
2023-01-09T22:47:35.168Z,46.67
2023-01-09T22:50:05.753Z,46.45
2023-01-09T22:52:34.562Z,46.46
2023-01-09T22:55:03.484Z,46.53
2023-01-09T22:57:30.683Z,46.48
2023-01-09T23:00:03.819Z,46.81
2023-01-09T23:02:33.926Z,46.87
2023-01-09T23:05:20.221Z,46.85
2023-01-09T23:07:47.454Z,47.29
2023-01-09T23:10:17.654Z,47.60
2023-01-09T23:12:51.475Z,47.32
2023-01-09T23:15:18.579Z,47.30
2023-01-09T23:17:49.897Z,47.78
2023-01-09T23:20:17.609Z,47.98
2023-01-09T23:22:45.183Z,48.20
2023-01-09T23:25:14.766Z,48.30
2023-01-09T23:27:45.206Z,48.20
2023-01-09T23:33:30.976Z,47.90
2023-01-09T23:35:58.690Z,48.04
2023-01-09T23:38:25.894Z,47.96
2023-01-09T23:43:48.350Z,48.00
2023-01-09T23:46:24.069Z,47.53
2023-01-09T23:48:53.553Z,47.65
2023-01-09T23:51:25.452Z,47.46
2023-01-09T23:54:11.345Z,47.80
2023-01-09T23:56:41.236Z,48.45
2023-01-09T23:59:12.073Z,47.79
